createdAt,value
2023-04-20T00:01:25.060Z,3.30
2023-04-20T00:03:52.728Z,2.78
2023-04-20T00:06:22.025Z,3.03
2023-04-20T00:08:48.676Z,3.17
2023-04-20T00:11:15.660Z,3.03
2023-04-20T00:13:42.595Z,2.90
2023-04-20T00:16:09.270Z,3.40
2023-04-20T00:18:35.763Z,4.32
2023-04-20T00:21:02.502Z,3.40
2023-04-20T00:23:29.015Z,2.85
2023-04-20T00:25:55.959Z,3.03
2023-04-20T00:28:22.629Z,3.67
2023-04-20T00:30:49.195Z,3.50
2023-04-20T00:33:15.991Z,3.17
2023-04-20T00:35:42.537Z,3.45
2023-04-20T00:38:09.216Z,3.20
2023-04-20T00:40:36.224Z,3.40
2023-04-20T00:43:13.701Z,2.97
2023-04-20T00:45:40.300Z,2.95
2023-04-20T00:48:07.452Z,3.72
2023-04-20T00:50:34.999Z,4.30
2023-04-20T00:53:02.771Z,3.28
2023-04-20T00:55:30.368Z,3.58
2023-04-20T00:57:57.398Z,3.95
2023-04-20T01:00:25.054Z,3.83
2023-04-20T01:02:52.113Z,3.50
2023-04-20T01:05:19.324Z,4.07
2023-04-20T01:07:45.850Z,3.40
2023-04-20T01:10:13.072Z,2.97
2023-04-20T01:12:39.980Z,3.13
2023-04-20T01:15:07.590Z,3.47
2023-04-20T01:17:38.323Z,3.50
2023-04-20T01:20:11.585Z,3.50
2023-04-20T01:23:04.568Z,3.20
2023-04-20T01:25:31.381Z,3.67
2023-04-20T01:27:58.020Z,3.33
2023-04-20T01:30:25.001Z,3.05
2023-04-20T01:32:52.020Z,2.85
2023-04-20T01:35:18.852Z,3.78
2023-04-20T01:37:45.482Z,2.97
2023-04-20T01:40:13.384Z,3.40
2023-04-20T01:42:40.320Z,3.45
2023-04-20T01:45:07.737Z,4.15
2023-04-20T01:47:34.580Z,3.03
2023-04-20T01:50:01.426Z,3.47
2023-04-20T01:52:28.042Z,3.58
2023-04-20T01:54:54.801Z,2.97
2023-04-20T01:57:21.295Z,3.55
2023-04-20T01:59:48.668Z,3.22
2023-04-20T02:02:15.310Z,3.58
2023-04-20T02:04:42.057Z,3.47
2023-04-20T02:07:08.963Z,3.50
2023-04-20T02:09:36.001Z,3.33
2023-04-20T02:12:03.172Z,3.20
2023-04-20T02:14:30.041Z,4.18
2023-04-20T02:16:57.072Z,4.03
2023-04-20T02:19:24.254Z,3.80
2023-04-20T02:21:51.470Z,3.75
2023-04-20T02:24:18.002Z,3.42
2023-04-20T02:26:44.690Z,3.95
2023-04-20T02:29:11.289Z,4.13
2023-04-20T02:31:37.931Z,3.92
2023-04-20T02:34:06.215Z,4.07
2023-04-20T02:36:34.527Z,4.47
2023-04-20T02:39:01.139Z,4.47
2023-04-20T02:41:27.818Z,4.10
2023-04-20T02:43:55.454Z,4.00
2023-04-20T02:46:22.046Z,4.53
2023-04-20T02:48:48.791Z,4.55
2023-04-20T02:51:15.701Z,3.70
2023-04-20T02:53:42.271Z,5.22
2023-04-20T02:56:08.881Z,4.30
2023-04-20T02:58:36.113Z,3.97
2023-04-20T03:01:04.164Z,3.65
2023-04-20T03:03:31.037Z,4.55
2023-04-20T03:05:58.507Z,3.97
2023-04-20T03:08:25.697Z,3.90
2023-04-20T03:10:52.634Z,4.60
2023-04-20T03:13:19.226Z,4.03
2023-04-20T03:15:45.848Z,4.22
2023-04-20T03:18:12.677Z,4.47
2023-04-20T03:20:40.479Z,4.05
2023-04-20T03:23:07.052Z,4.30
2023-04-20T03:25:33.561Z,4.88
2023-04-20T03:28:01.326Z,4.50
2023-04-20T03:30:28.175Z,5.40
2023-04-20T03:32:54.797Z,4.95
2023-04-20T03:35:21.678Z,4.43
2023-04-20T03:37:48.604Z,5.07
2023-04-20T03:40:15.263Z,5.18
2023-04-20T03:42:41.783Z,5.65
2023-04-20T03:45:08.860Z,5.47
2023-04-20T03:47:35.491Z,5.15
2023-04-20T03:50:02.498Z,5.70
2023-04-20T03:52:30.166Z,5.93
2023-04-20T03:54:56.714Z,5.50
2023-04-20T03:57:23.692Z,6.88
2023-04-20T03:59:50.761Z,6.35
2023-04-20T04:02:17.526Z,6.38
2023-04-20T04:04:45.432Z,5.90
2023-04-20T04:07:12.543Z,6.75
2023-04-20T04:09:39.050Z,5.53
2023-04-20T04:12:07.117Z,6.18
2023-04-20T04:14:36.512Z,6.63
2023-04-20T04:17:03.359Z,5.97
2023-04-20T04:19:29.997Z,6.25
2023-04-20T04:21:56.648Z,6.05
2023-04-20T04:24:23.471Z,6.75
2023-04-20T04:26:50.232Z,7.18
2023-04-20T04:29:17.085Z,6.45
2023-04-20T04:31:45.381Z,6.90
2023-04-20T04:34:12.274Z,6.68
2023-04-20T04:36:38.919Z,7.20
2023-04-20T04:39:05.799Z,7.05
2023-04-20T04:41:32.811Z,7.07
2023-04-20T04:43:59.510Z,6.88
2023-04-20T04:46:27.612Z,7.20
2023-04-20T04:48:54.549Z,8.23
2023-04-20T04:51:22.348Z,8.40
2023-04-20T04:53:49.616Z,8.73
2023-04-20T04:56:18.567Z,8.40
2023-04-20T04:58:45.925Z,8.00
2023-04-20T05:01:14.032Z,9.27
2023-04-20T05:03:42.059Z,8.68
2023-04-20T05:06:08.980Z,8.00
2023-04-20T05:08:36.148Z,8.18
2023-04-20T05:11:02.835Z,8.15
2023-04-20T05:13:29.603Z,8.10
2023-04-20T05:15:56.375Z,8.38
2023-04-20T05:18:23.203Z,8.73
2023-04-20T05:20:49.802Z,8.10
2023-04-20T05:23:17.034Z,7.72
2023-04-20T05:25:44.474Z,8.05
2023-04-20T05:28:11.427Z,7.45
2023-04-20T05:30:38.111Z,8.15
2023-04-20T05:33:05.343Z,7.80
2023-04-20T05:35:31.968Z,7.30
2023-04-20T05:38:02.559Z,6.90
2023-04-20T05:40:29.154Z,6.60
2023-04-20T05:42:55.811Z,6.47
2023-04-20T05:45:22.430Z,7.70
2023-04-20T05:47:54.043Z,6.30
2023-04-20T05:50:21.122Z,8.32
2023-04-20T05:52:47.746Z,7.32
2023-04-20T05:55:16.280Z,7.55
2023-04-20T05:57:44.772Z,7.60
2023-04-20T06:00:16.381Z,7.10
2023-04-20T06:02:43.636Z,6.07
2023-04-20T06:05:11.675Z,6.82
2023-04-20T06:07:41.670Z,6.85
2023-04-20T06:10:08.724Z,6.40
2023-04-20T06:12:36.541Z,6.22
2023-04-20T06:15:04.855Z,6.57
2023-04-20T06:17:31.581Z,6.43
2023-04-20T06:19:58.151Z,6.63
2023-04-20T06:22:25.006Z,7.25
2023-04-20T06:24:51.559Z,6.25
2023-04-20T06:27:18.108Z,6.15
2023-04-20T06:29:44.687Z,7.38
2023-04-20T06:32:12.784Z,6.10
2023-04-20T06:34:43.830Z,6.22
2023-04-20T06:37:10.361Z,6.30
2023-04-20T06:39:36.942Z,6.10
2023-04-20T06:42:03.615Z,5.85
2023-04-20T06:44:30.273Z,6.00
2023-04-20T06:46:59.797Z,6.30
2023-04-20T06:49:29.518Z,6.10
2023-04-20T06:51:56.381Z,6.07
2023-04-20T06:54:22.997Z,6.05
2023-04-20T06:56:54.198Z,6.20
2023-04-20T06:59:35.680Z,6.03
2023-04-20T07:02:07.692Z,6.00
2023-04-20T07:04:43.274Z,5.85
2023-04-20T07:07:12.484Z,6.85
2023-04-20T07:09:42.070Z,6.20
2023-04-20T07:12:09.408Z,5.95
2023-04-20T07:14:36.344Z,6.43
2023-04-20T07:17:09.355Z,5.47
2023-04-20T07:19:38.872Z,6.15
2023-04-20T07:22:05.483Z,5.97
2023-04-20T07:24:32.272Z,6.00
2023-04-20T07:26:58.821Z,5.68
2023-04-20T07:29:25.543Z,5.45
2023-04-20T07:31:53.203Z,5.82
2023-04-20T07:34:22.683Z,5.00
2023-04-20T07:36:49.262Z,5.93
2023-04-20T07:39:16.331Z,5.93
2023-04-20T07:41:43.822Z,6.35
2023-04-20T07:44:12.622Z,5.82
2023-04-20T07:46:42.066Z,14.43
2023-04-20T07:49:08.715Z,5.38
2023-04-20T07:51:36.426Z,5.28
2023-04-20T07:54:03.418Z,4.80
2023-04-20T07:56:34.246Z,5.05
2023-04-20T07:59:07.015Z,4.32
2023-04-20T08:01:34.950Z,4.50
2023-04-20T08:04:01.861Z,4.57
2023-04-20T08:06:28.739Z,4.70
2023-04-20T08:08:55.252Z,4.65
2023-04-20T08:11:25.902Z,4.18
2023-04-20T08:13:53.173Z,4.82
2023-04-20T08:16:19.901Z,4.05
2023-04-20T08:18:46.622Z,4.43
2023-04-20T08:21:13.653Z,4.40
2023-04-20T08:23:40.329Z,3.40
2023-04-20T08:26:07.275Z,3.45
2023-04-20T08:28:37.480Z,4.03
2023-04-20T08:31:10.476Z,4.07
2023-04-20T08:33:40.211Z,3.45
2023-04-20T08:36:07.115Z,3.42
2023-04-20T08:38:36.910Z,4.50
2023-04-20T08:41:13.703Z,3.95
2023-04-20T08:43:43.732Z,4.32
2023-04-20T08:46:10.855Z,3.72
2023-04-20T08:48:38.131Z,4.05
2023-04-20T08:51:08.531Z,3.63
2023-04-20T08:53:35.111Z,4.38
2023-04-20T08:56:01.932Z,4.43
2023-04-20T08:58:32.305Z,3.88
2023-04-20T09:01:02.122Z,4.40
2023-04-20T09:03:42.936Z,4.05
2023-04-20T09:06:17.800Z,3.75
2023-04-20T09:08:51.031Z,3.78
2023-04-20T09:11:25.980Z,9.27
2023-04-20T09:14:12.370Z,4.57
2023-04-20T09:16:50.570Z,4.95
2023-04-20T09:19:30.086Z,3.90
2023-04-20T09:21:59.564Z,3.30
2023-04-20T09:24:37.630Z,8.25
2023-04-20T09:27:18.477Z,4.22
2023-04-20T09:30:07.814Z,5.03
2023-04-20T09:32:35.600Z,3.30
2023-04-20T09:35:02.234Z,4.15
2023-04-20T09:37:30.710Z,4.60
2023-04-20T09:40:02.751Z,3.70
2023-04-20T09:42:31.809Z,3.72
2023-04-20T09:44:58.649Z,3.67
2023-04-20T09:47:27.458Z,4.10
2023-04-20T09:49:54.927Z,5.03
2023-04-20T09:52:24.415Z,3.92
2023-04-20T09:54:51.785Z,4.45
2023-04-20T09:57:19.633Z,3.63
2023-04-20T09:59:46.966Z,3.17
2023-04-20T10:02:13.976Z,3.83
2023-04-20T10:04:57.728Z,3.38
2023-04-20T10:07:29.348Z,3.80
2023-04-20T10:10:14.921Z,4.30
2023-04-20T10:13:11.460Z,3.50
2023-04-20T10:15:42.716Z,3.22
2023-04-20T10:18:17.687Z,3.57
2023-04-20T10:20:44.726Z,2.80
2023-04-20T10:23:11.814Z,2.88
2023-04-20T10:25:38.485Z,3.08
2023-04-20T10:28:09.519Z,3.25
2023-04-20T10:30:37.680Z,3.58
2023-04-20T10:33:04.337Z,7.43
2023-04-20T10:35:47.199Z,128.88
2023-04-20T10:38:14.138Z,6.63
2023-04-20T10:40:41.048Z,5.65
2023-04-20T10:43:23.183Z,3.65
2023-04-20T10:45:50.580Z,4.20
2023-04-20T10:48:18.783Z,5.95
2023-04-20T10:50:46.528Z,3.40
2023-04-20T10:53:23.963Z,3.40
2023-04-20T10:56:00.889Z,3.60
2023-04-20T10:58:27.698Z,3.00
2023-04-20T11:01:01.516Z,3.38
2023-04-20T11:03:29.602Z,3.25
2023-04-20T11:06:01.044Z,3.70
2023-04-20T11:08:38.652Z,3.90
2023-04-20T11:11:05.988Z,5.35
2023-04-20T11:13:33.197Z,4.57
2023-04-20T11:15:59.864Z,4.65
2023-04-20T11:18:26.620Z,5.15
2023-04-20T11:20:55.052Z,4.68
2023-04-20T11:23:23.349Z,4.85
2023-04-20T11:25:57.178Z,4.40
2023-04-20T11:28:25.973Z,3.85
2023-04-20T11:30:52.846Z,4.18
2023-04-20T11:33:28.418Z,4.32
2023-04-20T11:36:01.820Z,3.60
2023-04-20T11:38:31.457Z,3.53
2023-04-20T11:41:05.294Z,3.67
2023-04-20T11:43:32.917Z,3.38
2023-04-20T11:46:03.437Z,3.60
2023-04-20T11:48:33.079Z,3.85
2023-04-20T11:50:59.686Z,4.15
2023-04-20T11:53:26.676Z,3.70
2023-04-20T11:55:53.365Z,3.35
2023-04-20T11:58:20.234Z,3.08
2023-04-20T12:00:46.824Z,3.58
2023-04-20T12:03:13.739Z,3.42
2023-04-20T12:05:43.206Z,3.67
2023-04-20T12:08:09.977Z,3.25
2023-04-20T12:10:36.590Z,3.70
2023-04-20T12:13:03.305Z,3.20
2023-04-20T12:15:31.375Z,3.40
2023-04-20T12:17:59.297Z,4.22
2023-04-20T12:20:26.392Z,3.08
2023-04-20T12:22:53.330Z,3.67
2023-04-20T12:25:21.191Z,3.45
2023-04-20T12:27:50.019Z,3.25
2023-04-20T12:30:18.765Z,3.40
2023-04-20T12:32:46.645Z,3.05
2023-04-20T12:35:13.251Z,3.67
2023-04-20T12:37:40.129Z,3.53
2023-04-20T12:40:07.752Z,2.85
2023-04-20T12:42:34.406Z,2.92
2023-04-20T12:45:02.306Z,2.83
2023-04-20T12:47:28.988Z,3.10
2023-04-20T12:49:56.384Z,3.22
2023-04-20T12:52:23.256Z,3.33
2023-04-20T12:54:51.412Z,3.05
2023-04-20T12:57:18.275Z,2.85
2023-04-20T12:59:45.018Z,2.95
2023-04-20T13:02:12.088Z,3.30
2023-04-20T13:04:39.402Z,3.00
2023-04-20T13:07:06.055Z,3.05
2023-04-20T13:09:32.845Z,3.30
2023-04-20T13:11:59.471Z,2.63
2023-04-20T13:14:28.071Z,1.75
2023-04-20T13:16:55.782Z,2.08
2023-04-20T13:19:22.643Z,2.05
2023-04-20T13:21:49.484Z,1.92
2023-04-20T13:24:16.501Z,1.92
2023-04-20T13:26:44.622Z,2.60
2023-04-20T13:29:11.263Z,2.35
2023-04-20T13:31:38.008Z,2.00
2023-04-20T13:34:06.201Z,2.13
2023-04-20T13:36:33.171Z,2.13
2023-04-20T13:39:02.195Z,2.20
2023-04-20T13:41:28.908Z,1.77
2023-04-20T13:43:58.222Z,2.28
2023-04-20T13:46:24.982Z,2.40
2023-04-20T13:48:52.201Z,2.42
2023-04-20T13:51:21.828Z,2.75
2023-04-20T13:53:48.646Z,2.55
2023-04-20T13:56:23.873Z,2.55
2023-04-20T13:58:50.529Z,3.00
2023-04-20T14:01:21.053Z,2.80
2023-04-20T14:03:47.780Z,2.88
2023-04-20T14:06:15.075Z,3.38
2023-04-20T14:08:46.855Z,2.85
2023-04-20T14:11:15.395Z,3.20
2023-04-20T14:13:42.842Z,3.35
2023-04-20T14:16:21.583Z,2.80
2023-04-20T14:18:48.190Z,2.97
2023-04-20T14:21:15.359Z,3.17
2023-04-20T14:23:42.845Z,2.92
2023-04-20T14:26:09.605Z,4.93
2023-04-20T14:28:36.551Z,6.72
2023-04-20T14:31:03.438Z,2.67
2023-04-20T14:33:30.509Z,3.35
2023-04-20T14:36:00.690Z,2.67
2023-04-20T14:38:27.864Z,2.53
2023-04-20T14:40:54.910Z,2.33
2023-04-20T14:43:22.167Z,2.63
2023-04-20T14:45:51.349Z,2.90
2023-04-20T14:48:18.183Z,3.03
2023-04-20T14:50:46.481Z,2.72
2023-04-20T14:53:14.660Z,3.05
2023-04-20T14:55:43.434Z,3.22
2023-04-20T14:58:10.397Z,3.10
2023-04-20T15:00:39.039Z,2.88
2023-04-20T15:03:06.172Z,4.07
2023-04-20T15:05:33.778Z,4.38
2023-04-20T15:08:00.598Z,4.20
2023-04-20T15:10:27.578Z,5.00
2023-04-20T15:12:55.506Z,4.95
2023-04-20T15:15:34.585Z,5.40
2023-04-20T15:18:08.374Z,5.03
2023-04-20T15:20:35.149Z,6.03
2023-04-20T15:23:07.514Z,5.72
2023-04-20T15:25:35.609Z,5.20
2023-04-20T15:28:03.702Z,5.90
2023-04-20T15:30:33.435Z,5.35
2023-04-20T15:33:04.647Z,6.15
2023-04-20T15:35:32.223Z,5.68
2023-04-20T15:37:59.245Z,5.20
2023-04-20T15:40:27.703Z,5.18
2023-04-20T15:42:58.334Z,5.20
2023-04-20T15:45:25.214Z,5.28
2023-04-20T15:47:52.749Z,5.28
2023-04-20T15:50:19.586Z,5.03
2023-04-20T15:52:49.608Z,4.80
2023-04-20T15:55:17.101Z,4.90
2023-04-20T15:57:44.653Z,4.47
2023-04-20T16:00:12.714Z,4.55
2023-04-20T16:02:41.513Z,4.25
2023-04-20T16:05:09.440Z,4.95
2023-04-20T16:07:36.552Z,4.60
2023-04-20T16:10:06.572Z,4.45
2023-04-20T16:12:34.433Z,5.20
2023-04-20T16:15:02.343Z,4.50
2023-04-20T16:17:29.124Z,5.30
2023-04-20T16:19:56.097Z,4.82
2023-04-20T16:22:22.789Z,4.65
2023-04-20T16:24:49.509Z,3.92
2023-04-20T16:27:16.536Z,4.72
2023-04-20T16:29:45.120Z,4.53
2023-04-20T16:32:12.034Z,4.60
2023-04-20T16:34:38.799Z,4.72
2023-04-20T16:37:05.496Z,5.07
2023-04-20T16:39:32.081Z,5.82
2023-04-20T16:42:00.258Z,5.88
2023-04-20T16:44:26.916Z,5.75
2023-04-20T16:46:53.785Z,6.28
2023-04-20T16:49:21.209Z,6.70
2023-04-20T16:51:48.063Z,6.05
2023-04-20T16:54:14.686Z,6.22
2023-04-20T16:56:42.083Z,6.25
2023-04-20T16:59:09.605Z,7.40
2023-04-20T17:01:36.208Z,6.97
2023-04-20T17:04:02.967Z,7.68
2023-04-20T17:06:31.839Z,7.68
2023-04-20T17:09:05.652Z,8.25
2023-04-20T17:11:36.262Z,8.30
2023-04-20T17:14:03.454Z,9.13
2023-04-20T17:16:30.464Z,8.43
2023-04-20T17:18:58.277Z,9.10
2023-04-20T17:21:26.766Z,9.98
2023-04-20T17:23:55.630Z,9.73
2023-04-20T17:26:23.309Z,10.30
2023-04-20T17:28:50.124Z,11.02
2023-04-20T17:31:16.757Z,10.00
2023-04-20T17:33:44.987Z,10.48
2023-04-20T17:36:12.939Z,10.52
2023-04-20T17:38:39.849Z,10.65
2023-04-20T17:41:07.368Z,10.70
2023-04-20T17:43:36.347Z,11.45
2023-04-20T17:46:03.037Z,11.77
2023-04-20T17:48:29.957Z,10.77
2023-04-20T17:50:58.831Z,12.45
2023-04-20T17:53:26.885Z,11.93
2023-04-20T17:55:54.178Z,12.27
2023-04-20T17:58:22.623Z,12.65
2023-04-20T18:00:49.444Z,13.15
2023-04-20T18:03:16.445Z,12.40
2023-04-20T18:05:48.700Z,13.32
2023-04-20T18:08:17.893Z,14.20
2023-04-20T18:10:44.448Z,15.18
2023-04-20T18:13:11.091Z,15.57
2023-04-20T18:15:39.099Z,15.82
2023-04-20T18:18:05.654Z,15.93
2023-04-20T18:20:32.761Z,17.52
2023-04-20T18:22:59.394Z,16.52
2023-04-20T18:25:26.078Z,17.35
2023-04-20T18:27:52.786Z,16.67
2023-04-20T18:30:19.616Z,16.85
2023-04-20T18:32:46.307Z,18.88
2023-04-20T18:35:13.149Z,19.30
2023-04-20T18:37:41.784Z,20.20
2023-04-20T18:40:09.003Z,20.90
2023-04-20T18:42:36.044Z,23.98
2023-04-20T18:45:03.462Z,22.92
2023-04-20T18:47:31.823Z,26.33
2023-04-20T18:49:58.738Z,27.48
2023-04-20T18:52:25.770Z,30.50
2023-04-20T18:54:56.278Z,31.25
2023-04-20T18:57:26.173Z,31.35
2023-04-20T18:59:55.272Z,32.53
2023-04-20T19:02:23.136Z,30.85
2023-04-20T19:04:50.876Z,35.05
2023-04-20T19:07:18.371Z,35.88
2023-04-20T19:09:45.314Z,34.92
2023-04-20T19:12:12.017Z,31.65
2023-04-20T19:14:40.709Z,34.72
2023-04-20T19:17:07.457Z,35.45
2023-04-20T19:19:34.459Z,34.13
2023-04-20T19:22:02.748Z,37.70
2023-04-20T19:24:30.341Z,41.28
2023-04-20T19:26:57.917Z,39.90
2023-04-20T19:29:24.691Z,43.63
2023-04-20T19:31:51.872Z,43.72
2023-04-20T19:34:18.879Z,45.33
2023-04-20T19:36:45.701Z,45.13
2023-04-20T19:39:12.637Z,43.05
2023-04-20T19:41:40.950Z,43.70
2023-04-20T19:44:10.473Z,43.30
2023-04-20T19:46:40.827Z,43.13
2023-04-20T19:49:07.915Z,45.75
2023-04-20T19:51:34.621Z,42.97
2023-04-20T19:54:01.809Z,42.22
2023-04-20T19:56:28.532Z,44.72
2023-04-20T19:58:55.178Z,44.30
2023-04-20T20:01:21.863Z,41.65
2023-04-20T20:03:48.689Z,42.72
2023-04-20T20:06:15.858Z,41.83
2023-04-20T20:08:42.692Z,42.20
2023-04-20T20:11:09.326Z,42.35
2023-04-20T20:13:36.098Z,44.95
2023-04-20T20:16:04.052Z,46.65
2023-04-20T20:18:31.925Z,47.40
2023-04-20T20:20:58.498Z,45.50
2023-04-20T20:23:26.731Z,46.63
2023-04-20T20:25:54.479Z,43.95
2023-04-20T20:28:22.241Z,44.83
2023-04-20T20:30:50.551Z,46.08
2023-04-20T20:33:17.143Z,44.25
2023-04-20T20:35:45.103Z,45.38
2023-04-20T20:38:11.679Z,42.90
2023-04-20T20:40:39.889Z,44.95
2023-04-20T20:43:06.837Z,45.55
2023-04-20T20:45:33.472Z,44.08
2023-04-20T20:48:01.909Z,45.28
2023-04-20T20:50:28.779Z,44.00
2023-04-20T20:52:55.428Z,43.17
2023-04-20T20:55:23.456Z,42.42
2023-04-20T20:57:50.792Z,41.70
2023-04-20T21:00:18.370Z,44.28
2023-04-20T21:02:45.747Z,43.90
2023-04-20T21:05:12.653Z,46.60
2023-04-20T21:07:41.036Z,45.83
2023-04-20T21:10:08.129Z,43.03
2023-04-20T21:12:35.685Z,42.30
2023-04-20T21:15:02.370Z,43.65
2023-04-20T21:17:29.072Z,44.67
2023-04-20T21:19:55.752Z,42.67
2023-04-20T21:22:23.346Z,42.10
2023-04-20T21:24:50.044Z,41.90
2023-04-20T21:27:16.785Z,41.08
2023-04-20T21:29:43.361Z,42.42
2023-04-20T21:32:10.243Z,41.17
2023-04-20T21:34:36.808Z,43.42
2023-04-20T21:37:05.251Z,42.75
2023-04-20T21:39:32.450Z,42.67
2023-04-20T21:41:59.763Z,42.80
2023-04-20T21:44:26.729Z,42.67
2023-04-20T21:46:53.234Z,42.95
2023-04-20T21:49:20.285Z,45.75
2023-04-20T21:51:47.429Z,47.35
2023-04-20T21:54:14.429Z,44.97
2023-04-20T21:56:41.291Z,44.22
2023-04-20T21:59:07.832Z,38.90
2023-04-20T22:01:34.442Z,42.85
2023-04-20T22:04:01.742Z,43.65
2023-04-20T22:06:28.549Z,45.60
2023-04-20T22:08:56.364Z,46.60
2023-04-20T22:11:23.041Z,43.83
2023-04-20T22:13:49.756Z,49.35
2023-04-20T22:16:17.984Z,44.67
2023-04-20T22:18:44.652Z,43.63
2023-04-20T22:21:11.155Z,42.25
2023-04-20T22:23:37.723Z,44.83
2023-04-20T22:26:04.708Z,43.00
2023-04-20T22:28:31.894Z,43.83
2023-04-20T22:30:58.548Z,42.83
2023-04-20T22:33:25.325Z,45.13
2023-04-20T22:35:52.638Z,44.00
2023-04-20T22:38:19.171Z,44.50
2023-04-20T22:40:47.058Z,45.70
2023-04-20T22:43:13.831Z,45.40
2023-04-20T22:45:41.638Z,44.17
2023-04-20T22:48:09.201Z,46.90
2023-04-20T22:50:36.466Z,43.30
2023-04-20T22:53:03.681Z,47.20
2023-04-20T22:55:31.581Z,43.38
2023-04-20T22:57:58.121Z,45.03
2023-04-20T23:00:24.699Z,42.75
2023-04-20T23:02:51.863Z,43.67
2023-04-20T23:05:20.302Z,44.50
2023-04-20T23:07:54.201Z,42.67
2023-04-20T23:10:22.230Z,41.92
2023-04-20T23:12:49.186Z,42.70
2023-04-20T23:15:15.976Z,42.25
2023-04-20T23:17:42.840Z,43.67
2023-04-20T23:20:14.584Z,44.05
2023-04-20T23:22:41.156Z,43.63
2023-04-20T23:25:09.533Z,43.15
2023-04-20T23:27:36.514Z,43.22
2023-04-20T23:30:03.439Z,42.45
2023-04-20T23:32:30.243Z,42.42
2023-04-20T23:34:56.838Z,41.75
2023-04-20T23:37:23.387Z,41.88
2023-04-20T23:39:49.967Z,44.50
2023-04-20T23:42:16.621Z,44.97
2023-04-20T23:44:43.250Z,43.72
2023-04-20T23:47:09.779Z,44.83
2023-04-20T23:49:37.838Z,44.60
2023-04-20T23:52:06.005Z,45.58
2023-04-20T23:54:33.473Z,43.90
2023-04-20T23:57:00.400Z,43.72
2023-04-20T23:59:27.027Z,44.00
